sensor_id;sensor_type;location;lat;lon;timestamp;pressure;altitude;pressure_sealevel;temperature;humidity
58245;BME280;44550;43.864;25.986;2022-11-15T00:00:29;102045.00;;;8.23;97.14
58245;BME280;44550;43.864;25.986;2022-11-15T00:04:58;102025.63;;;8.17;96.30
58245;BME280;44550;43.864;25.986;2022-11-15T00:09:19;102046.47;;;8.39;95.62
58245;BME280;44550;43.864;25.986;2022-11-15T00:13:37;102008.25;;;8.16;94.79
58245;BME280;44550;43.864;25.986;2022-11-15T00:17:55;102039.41;;;8.37;95.25
58245;BME280;44550;43.864;25.986;2022-11-15T00:22:13;102032.53;;;8.15;95.89
58245;BME280;44550;43.864;25.986;2022-11-15T00:26:34;101954.69;;;7.77;96.04
58245;BME280;44550;43.864;25.986;2022-11-15T00:30:52;102001.56;;;8.00;95.92
58245;BME280;44550;43.864;25.986;2022-11-15T00:35:11;102030.13;;;8.21;95.91
58245;BME280;44550;43.864;25.986;2022-11-15T00:39:29;102022.47;;;8.02;96.55
58245;BME280;44550;43.864;25.986;2022-11-15T00:43:49;102012.25;;;8.08;96.79
58245;BME280;44550;43.864;25.986;2022-11-15T00:48:15;102011.94;;;7.98;97.22
58245;BME280;44550;43.864;25.986;2022-11-15T00:52:45;102007.63;;;7.99;97.28
58245;BME280;44550;43.864;25.986;2022-11-15T00:57:04;101999.69;;;7.96;97.52
58245;BME280;44550;43.864;25.986;2022-11-15T01:01:24;102002.31;;;7.97;97.49
58245;BME280;44550;43.864;25.986;2022-11-15T01:05:45;101998.13;;;8.01;97.69
58245;BME280;44550;43.864;25.986;2022-11-15T01:10:03;101997.69;;;7.89;98.04
58245;BME280;44550;43.864;25.986;2022-11-15T01:14:21;101954.59;;;7.74;97.90
58245;BME280;44550;43.864;25.986;2022-11-15T01:18:45;101937.16;;;7.72;97.78
58245;BME280;44550;43.864;25.986;2022-11-15T01:23:06;101963.63;;;7.84;97.72
58245;BME280;44550;43.864;25.986;2022-11-15T01:27:24;101968.47;;;7.97;97.49
58245;BME280;44550;43.864;25.986;2022-11-15T01:31:47;101981.59;;;8.00;96.84
58245;BME280;44550;43.864;25.986;2022-11-15T01:36:12;101983.28;;;7.98;97.11
58245;BME280;44550;43.864;25.986;2022-11-15T01:40:30;101980.97;;;8.06;96.76
58245;BME280;44550;43.864;25.986;2022-11-15T01:44:49;101981.13;;;8.11;96.14
58245;BME280;44550;43.864;25.986;2022-11-15T01:49:13;101983.06;;;8.16;95.87
58245;BME280;44550;43.864;25.986;2022-11-15T01:53:36;101973.38;;;8.12;95.38
58245;BME280;44550;43.864;25.986;2022-11-15T01:58:03;101978.50;;;8.11;95.60
58245;BME280;44550;43.864;25.986;2022-11-15T02:02:22;101949.34;;;7.97;95.26
58245;BME280;44550;43.864;25.986;2022-11-15T02:06:42;101962.34;;;8.19;95.16
58245;BME280;44550;43.864;25.986;2022-11-15T02:11:04;101951.66;;;8.12;94.44
58245;BME280;44550;43.864;25.986;2022-11-15T02:15:24;101969.88;;;8.36;93.72
58245;BME280;44550;43.864;25.986;2022-11-15T02:24:49;101926.59;;;8.15;92.73
58245;BME280;44550;43.864;25.986;2022-11-15T02:29:23;101865.06;;;7.71;93.54
58245;BME280;44550;43.864;25.986;2022-11-15T02:33:54;101947.47;;;8.17;93.23
58245;BME280;44550;43.864;25.986;2022-11-15T02:38:20;101945.09;;;8.23;92.77
58245;BME280;44550;43.864;25.986;2022-11-15T02:42:46;101943.56;;;8.28;92.79
58245;BME280;44550;43.864;25.986;2022-11-15T02:47:41;101942.00;;;8.09;92.69
58245;BME280;44550;43.864;25.986;2022-11-15T02:52:03;101952.78;;;8.20;92.63
58245;BME280;44550;43.864;25.986;2022-11-15T02:56:30;101931.34;;;8.03;92.63
58245;BME280;44550;43.864;25.986;2022-11-15T03:00:53;101951.53;;;8.09;92.03
58245;BME280;44550;43.864;25.986;2022-11-15T03:05:24;101943.16;;;7.93;92.68
58245;BME280;44550;43.864;25.986;2022-11-15T03:09:50;101913.22;;;7.82;92.31
58245;BME280;44550;43.864;25.986;2022-11-15T03:14:20;101891.53;;;7.82;92.32
58245;BME280;44550;43.864;25.986;2022-11-15T03:18:42;101933.53;;;8.15;91.77
58245;BME280;44550;43.864;25.986;2022-11-15T03:23:05;101937.78;;;8.13;91.53
58245;BME280;44550;43.864;25.986;2022-11-15T03:27:30;101934.28;;;8.12;91.19
58245;BME280;44550;43.864;25.986;2022-11-15T03:31:54;101928.34;;;8.16;91.33
58245;BME280;44550;43.864;25.986;2022-11-15T03:36:15;101930.84;;;8.13;91.44
58245;BME280;44550;43.864;25.986;2022-11-15T03:40:37;101922.00;;;8.08;90.93
58245;BME280;44550;43.864;25.986;2022-11-15T03:45:02;101921.31;;;8.14;91.45
58245;BME280;44550;43.864;25.986;2022-11-15T03:55:44;101903.94;;;8.14;90.58
58245;BME280;44550;43.864;25.986;2022-11-15T04:00:08;101899.78;;;8.18;90.90
58245;BME280;44550;43.864;25.986;2022-11-15T04:04:30;101869.50;;;8.21;90.08
58245;BME280;44550;43.864;25.986;2022-11-15T04:08:50;101899.91;;;8.46;89.61
58245;BME280;44550;43.864;25.986;2022-11-15T04:13:10;101901.94;;;8.55;89.23
58245;BME280;44550;43.864;25.986;2022-11-15T04:17:42;101894.13;;;8.55;88.00
58245;BME280;44550;43.864;25.986;2022-11-15T04:22:12;101822.69;;;7.99;88.67
58245;BME280;44550;43.864;25.986;2022-11-15T04:26:47;101890.25;;;8.44;88.92
58245;BME280;44550;43.864;25.986;2022-11-15T04:31:13;101887.47;;;8.38;89.39
58245;BME280;44550;43.864;25.986;2022-11-15T04:35:37;101881.31;;;8.37;89.59
58245;BME280;44550;43.864;25.986;2022-11-15T04:39:57;101849.34;;;8.17;89.82
58245;BME280;44550;43.864;25.986;2022-11-15T04:44:22;101857.56;;;8.28;89.31
58245;BME280;44550;43.864;25.986;2022-11-15T04:48:40;101886.03;;;8.47;89.20
58245;BME280;44550;43.864;25.986;2022-11-15T04:53:01;101877.47;;;8.26;89.71
58245;BME280;44550;43.864;25.986;2022-11-15T04:57:20;101877.50;;;8.28;90.30
58245;BME280;44550;43.864;25.986;2022-11-15T05:01:52;101823.41;;;7.95;89.82
58245;BME280;44550;43.864;25.986;2022-11-15T05:06:11;101888.44;;;8.17;90.65
58245;BME280;44550;43.864;25.986;2022-11-15T05:10:31;101895.47;;;8.20;90.94
58245;BME280;44550;43.864;25.986;2022-11-15T05:14:55;101878.06;;;8.43;90.11
58245;BME280;44550;43.864;25.986;2022-11-15T05:19:14;101879.81;;;8.44;89.27
58245;BME280;44550;43.864;25.986;2022-11-15T05:23:44;101875.53;;;8.44;89.45
58245;BME280;44550;43.864;25.986;2022-11-15T05:33:23;101877.09;;;8.41;89.47
58245;BME280;44550;43.864;25.986;2022-11-15T05:37:42;101880.25;;;8.07;90.39
58245;BME280;44550;43.864;25.986;2022-11-15T05:55:27;101873.09;;;8.25;90.14
58245;BME280;44550;43.864;25.986;2022-11-15T06:00:44;101857.59;;;8.30;89.47
58245;BME280;44550;43.864;25.986;2022-11-15T06:05:13;101870.13;;;8.65;88.60
58245;BME280;44550;43.864;25.986;2022-11-15T06:10:09;101830.78;;;8.58;88.04
58245;BME280;44550;43.864;25.986;2022-11-15T06:14:32;101886.03;;;9.29;86.55
58245;BME280;44550;43.864;25.986;2022-11-15T06:18:59;101885.94;;;9.26;84.88
58245;BME280;44550;43.864;25.986;2022-11-15T06:23:19;101886.31;;;9.09;85.16
58245;BME280;44550;43.864;25.986;2022-11-15T06:27:40;101885.38;;;9.07;84.70
58245;BME280;44550;43.864;25.986;2022-11-15T06:32:01;101886.84;;;8.99;85.38
58245;BME280;44550;43.864;25.986;2022-11-15T06:36:22;101883.16;;;8.92;85.19
58245;BME280;44550;43.864;25.986;2022-11-15T06:40:40;101883.72;;;8.82;85.71
58245;BME280;44550;43.864;25.986;2022-11-15T06:44:59;101885.06;;;9.25;86.09
58245;BME280;44550;43.864;25.986;2022-11-15T06:49:19;101895.97;;;9.40;82.76
58245;BME280;44550;43.864;25.986;2022-11-15T06:53:37;101886.63;;;9.49;82.41
58245;BME280;44550;43.864;25.986;2022-11-15T06:58:46;101889.28;;;9.50;82.12
58245;BME280;44550;43.864;25.986;2022-11-15T07:03:08;101880.13;;;9.34;82.85
58245;BME280;44550;43.864;25.986;2022-11-15T07:07:57;101885.06;;;9.25;83.41
58245;BME280;44550;43.864;25.986;2022-11-15T07:12:16;101880.44;;;8.89;84.67
58245;BME280;44550;43.864;25.986;2022-11-15T07:16:36;101871.19;;;8.99;84.74
58245;BME280;44550;43.864;25.986;2022-11-15T07:20:55;101875.56;;;9.00;83.83
58245;BME280;44550;43.864;25.986;2022-11-15T07:25:15;101871.22;;;9.28;83.24
58245;BME280;44550;43.864;25.986;2022-11-15T07:29:34;101847.59;;;8.94;83.48
58245;BME280;44550;43.864;25.986;2022-11-15T07:33:52;101873.75;;;9.25;83.00
58245;BME280;44550;43.864;25.986;2022-11-15T07:38:11;101872.09;;;9.28;82.24
58245;BME280;44550;43.864;25.986;2022-11-15T07:42:51;101867.94;;;9.06;83.26
58245;BME280;44550;43.864;25.986;2022-11-15T07:47:12;101860.59;;;9.22;82.52
58245;BME280;44550;43.864;25.986;2022-11-15T07:51:30;101860.69;;;9.25;82.27
58245;BME280;44550;43.864;25.986;2022-11-15T07:55:49;101866.13;;;9.32;82.00
58245;BME280;44550;43.864;25.986;2022-11-15T08:00:15;101858.28;;;9.31;81.60
58245;BME280;44550;43.864;25.986;2022-11-15T08:04:35;101860.69;;;9.25;81.82
58245;BME280;44550;43.864;25.986;2022-11-15T08:08:54;101858.38;;;9.35;82.11
58245;BME280;44550;43.864;25.986;2022-11-15T08:13:14;101853.56;;;9.19;82.31
58245;BME280;44550;43.864;25.986;2022-11-15T08:17:35;101835.81;;;9.07;82.41
58245;BME280;44550;43.864;25.986;2022-11-15T08:21:55;101857.97;;;9.22;82.38
58245;BME280;44550;43.864;25.986;2022-11-15T08:26:16;101863.91;;;9.46;82.34
58245;BME280;44550;43.864;25.986;2022-11-15T08:30:37;101850.94;;;9.48;81.83
58245;BME280;44550;43.864;25.986;2022-11-15T08:35:14;101844.28;;;9.59;81.75
58245;BME280;44550;43.864;25.986;2022-11-15T08:39:43;101789.38;;;9.26;81.19
58245;BME280;44550;43.864;25.986;2022-11-15T08:44:02;101845.72;;;9.48;81.49
58245;BME280;44550;43.864;25.986;2022-11-15T08:48:21;101839.44;;;9.43;81.85
58245;BME280;44550;43.864;25.986;2022-11-15T08:52:50;101831.63;;;9.43;81.67
58245;BME280;44550;43.864;25.986;2022-11-15T08:57:18;101824.91;;;9.21;82.52
58245;BME280;44550;43.864;25.986;2022-11-15T09:01:38;101814.19;;;9.41;82.12
58245;BME280;44550;43.864;25.986;2022-11-15T09:06:00;101793.63;;;9.22;82.30
58245;BME280;44550;43.864;25.986;2022-11-15T09:10:21;101816.66;;;9.37;81.75
58245;BME280;44550;43.864;25.986;2022-11-15T09:14:40;101755.41;;;8.94;81.56
58245;BME280;44550;43.864;25.986;2022-11-15T09:19:03;101801.91;;;9.37;81.78
58245;BME280;44550;43.864;25.986;2022-11-15T09:23:27;101799.44;;;9.44;81.51
58245;BME280;44550;43.864;25.986;2022-11-15T09:27:52;101779.41;;;9.43;81.37
58245;BME280;44550;43.864;25.986;2022-11-15T09:32:12;101749.84;;;9.44;80.65
58245;BME280;44550;43.864;25.986;2022-11-15T09:36:30;101766.91;;;9.62;80.66
58245;BME280;44550;43.864;25.986;2022-11-15T09:45:34;101767.00;;;9.65;80.22
58245;BME280;44550;43.864;25.986;2022-11-15T09:49:55;101744.25;;;9.61;80.54
58245;BME280;44550;43.864;25.986;2022-11-15T09:54:05;101744.25;;;9.61;80.61
58245;BME280;44550;43.864;25.986;2022-11-15T09:58:36;101741.97;;;9.42;80.51
58245;BME280;44550;43.864;25.986;2022-11-15T10:03:06;101736.88;;;9.47;81.23
58245;BME280;44550;43.864;25.986;2022-11-15T10:07:25;101744.06;;;9.54;81.00
58245;BME280;44550;43.864;25.986;2022-11-15T10:11:58;101736.69;;;9.72;81.37
58245;BME280;44550;43.864;25.986;2022-11-15T10:16:17;101735.53;;;9.94;79.75
58245;BME280;44550;43.864;25.986;2022-11-15T10:20:27;101715.22;;;10.19;78.44
58245;BME280;44550;43.864;25.986;2022-11-15T10:24:40;101712.88;;;10.28;78.14
58245;BME280;44550;43.864;25.986;2022-11-15T10:28:42;101706.41;;;10.50;76.94
58245;BME280;44550;43.864;25.986;2022-11-15T10:38:11;101692.34;;;10.86;75.41
58245;BME280;44550;43.864;25.986;2022-11-15T10:42:25;101687.44;;;11.01;75.00
58245;BME280;44550;43.864;25.986;2022-11-15T13:09:57;101520.22;;;11.16;70.63
58245;BME280;44550;43.864;25.986;2022-11-15T13:13:57;101511.69;;;10.78;72.43
58245;BME280;44550;43.864;25.986;2022-11-15T13:17:57;101511.38;;;10.63;72.79
58245;BME280;44550;43.864;25.986;2022-11-15T13:21:59;101465.91;;;10.53;73.36
58245;BME280;44550;43.864;25.986;2022-11-15T13:26:18;101466.16;;;10.68;72.82
58245;BME280;44550;43.864;25.986;2022-11-15T13:30:20;101498.97;;;10.98;73.12
58245;BME280;44550;43.864;25.986;2022-11-15T13:34:31;101444.50;;;10.75;72.50
58245;BME280;44550;43.864;25.986;2022-11-15T13:38:57;101470.06;;;10.90;71.93
58245;BME280;44550;43.864;25.986;2022-11-15T13:43:17;101430.13;;;10.52;72.58
58245;BME280;44550;43.864;25.986;2022-11-15T13:47:26;101483.25;;;10.98;72.14
58245;BME280;44550;43.864;25.986;2022-11-15T13:51:35;101473.31;;;11.30;71.41
58245;BME280;44550;43.864;25.986;2022-11-15T13:55:36;101445.16;;;11.15;71.14
58245;BME280;44550;43.864;25.986;2022-11-15T13:59:45;101466.53;;;11.43;70.46
58245;BME280;44550;43.864;25.986;2022-11-15T14:03:50;101444.44;;;11.24;70.43
58245;BME280;44550;43.864;25.986;2022-11-15T14:07:54;101465.38;;;11.25;71.45
58245;BME280;44550;43.864;25.986;2022-11-15T14:11:56;101400.38;;;10.97;71.08
58245;BME280;44550;43.864;25.986;2022-11-15T14:16:20;101437.44;;;11.24;71.13
58245;BME280;44550;43.864;25.986;2022-11-15T14:20:27;101451.97;;;11.04;71.66
58245;BME280;44550;43.864;25.986;2022-11-15T14:24:30;101447.31;;;10.86;72.43
58245;BME280;44550;43.864;25.986;2022-11-15T14:28:33;101442.16;;;10.91;72.40
58245;BME280;44550;43.864;25.986;2022-11-15T14:32:43;101443.66;;;10.76;73.02
58245;BME280;44550;43.864;25.986;2022-11-15T14:36:43;101433.16;;;10.73;73.52
58245;BME280;44550;43.864;25.986;2022-11-15T14:40:43;101432.44;;;10.85;73.38
58245;BME280;44550;43.864;25.986;2022-11-15T14:44:43;101422.97;;;10.90;73.03
58245;BME280;44550;43.864;25.986;2022-11-15T14:48:45;101368.53;;;10.69;72.89
58245;BME280;44550;43.864;25.986;2022-11-15T14:52:45;101411.00;;;11.08;72.68
58245;BME280;44550;43.864;25.986;2022-11-15T14:56:45;101395.66;;;10.74;72.51
58245;BME280;44550;43.864;25.986;2022-11-15T15:00:45;101412.16;;;10.72;73.53
58245;BME280;44550;43.864;25.986;2022-11-15T15:04:46;101414.41;;;11.00;73.12
58245;BME280;44550;43.864;25.986;2022-11-15T15:08:46;101411.94;;;11.11;72.49
58245;BME280;44550;43.864;25.986;2022-11-15T15:12:48;101346.22;;;10.91;71.25
58245;BME280;44550;43.864;25.986;2022-11-15T15:16:48;101415.94;;;10.89;72.18
58245;BME280;44550;43.864;25.986;2022-11-15T15:20:56;101408.75;;;10.76;73.25
58245;BME280;44550;43.864;25.986;2022-11-15T15:24:59;101410.47;;;10.74;73.41
58245;BME280;44550;43.864;25.986;2022-11-15T15:28:59;101411.00;;;10.53;74.52
58245;BME280;44550;43.864;25.986;2022-11-15T15:32:59;101396.97;;;10.49;74.61
58245;BME280;44550;43.864;25.986;2022-11-15T15:37:21;101402.97;;;10.44;75.10
58245;BME280;44550;43.864;25.986;2022-11-15T15:41:22;101402.69;;;10.28;75.38
58245;BME280;44550;43.864;25.986;2022-11-15T15:45:24;101397.97;;;10.10;75.87
58245;BME280;44550;43.864;25.986;2022-11-15T15:49:24;101399.47;;;9.99;76.48
58245;BME280;44550;43.864;25.986;2022-11-15T15:53:26;101396.72;;;9.92;76.90
58245;BME280;44550;43.864;25.986;2022-11-15T15:57:27;101395.91;;;9.94;77.10
58245;BME280;44550;43.864;25.986;2022-11-15T16:01:26;101388.47;;;9.70;78.11
58245;BME280;44550;43.864;25.986;2022-11-15T16:05:26;101384.66;;;9.56;79.00
58245;BME280;44550;43.864;25.986;2022-11-15T16:09:28;101379.38;;;9.53;79.48
58245;BME280;44550;43.864;25.986;2022-11-15T16:13:44;101380.25;;;9.53;79.39
58245;BME280;44550;43.864;25.986;2022-11-15T16:17:47;101378.09;;;9.75;79.25
58245;BME280;44550;43.864;25.986;2022-11-15T16:21:47;101376.94;;;10.04;78.25
58245;BME280;44550;43.864;25.986;2022-11-15T16:25:52;101330.16;;;9.73;76.79
58245;BME280;44550;43.864;25.986;2022-11-15T16:29:52;101367.13;;;9.91;77.81
58245;BME280;44550;43.864;25.986;2022-11-15T16:33:52;101370.28;;;9.76;77.86
58245;BME280;44550;43.864;25.986;2022-11-15T16:37:52;101376.50;;;9.81;78.04
58245;BME280;44550;43.864;25.986;2022-11-15T16:41:54;101367.94;;;9.88;77.84
58245;BME280;44550;43.864;25.986;2022-11-15T16:45:53;101371.22;;;9.80;77.89
58245;BME280;44550;43.864;25.986;2022-11-15T16:49:53;101372.16;;;9.82;78.46
58245;BME280;44550;43.864;25.986;2022-11-15T16:53:53;101362.88;;;9.98;77.50
58245;BME280;44550;43.864;25.986;2022-11-15T16:57:54;101368.44;;;9.71;77.68
58245;BME280;44550;43.864;25.986;2022-11-15T17:01:54;101363.84;;;9.59;78.08
58245;BME280;44550;43.864;25.986;2022-11-15T17:05:57;101364.22;;;9.35;79.38
58245;BME280;44550;43.864;25.986;2022-11-15T17:09:57;101360.28;;;9.54;78.69
58245;BME280;44550;43.864;25.986;2022-11-15T17:13:59;101349.06;;;9.59;78.80
58245;BME280;44550;43.864;25.986;2022-11-15T17:17:59;101338.75;;;9.65;78.49
58245;BME280;44550;43.864;25.986;2022-11-15T17:22:01;101299.25;;;9.49;78.38
58245;BME280;44550;43.864;25.986;2022-11-15T17:26:04;101293.75;;;9.35;78.71
58245;BME280;44550;43.864;25.986;2022-11-15T17:30:26;101323.94;;;9.66;78.64
58245;BME280;44550;43.864;25.986;2022-11-15T17:34:26;101323.66;;;9.96;77.77
58245;BME280;44550;43.864;25.986;2022-11-15T17:38:27;101312.63;;;10.11;76.95
58245;BME280;44550;43.864;25.986;2022-11-15T17:42:28;101308.50;;;10.24;76.48
58245;BME280;44550;43.864;25.986;2022-11-15T17:46:32;101312.50;;;10.05;77.14
58245;BME280;44550;43.864;25.986;2022-11-15T17:50:32;101311.06;;;10.22;76.62
58245;BME280;44550;43.864;25.986;2022-11-15T17:54:32;101287.72;;;10.30;75.99
58245;BME280;44550;43.864;25.986;2022-11-15T17:58:32;101299.00;;;10.29;75.68
58245;BME280;44550;43.864;25.986;2022-11-15T18:02:35;101302.63;;;9.88;76.99
58245;BME280;44550;43.864;25.986;2022-11-15T18:06:36;101297.22;;;9.79;77.25
58245;BME280;44550;43.864;25.986;2022-11-15T18:10:36;101297.78;;;9.63;78.08
58245;BME280;44550;43.864;25.986;2022-11-15T18:14:36;101292.44;;;9.57;78.23
58245;BME280;44550;43.864;25.986;2022-11-15T18:18:38;101291.75;;;9.65;78.44
58245;BME280;44550;43.864;25.986;2022-11-15T18:22:38;101289.25;;;9.72;77.84
58245;BME280;44550;43.864;25.986;2022-11-15T18:26:38;101287.44;;;9.69;77.60
58245;BME280;44550;43.864;25.986;2022-11-15T18:30:37;101286.72;;;9.76;77.94
58245;BME280;44550;43.864;25.986;2022-11-15T18:34:39;101280.91;;;9.91;76.99
58245;BME280;44550;43.864;25.986;2022-11-15T18:38:39;101273.09;;;9.93;76.59
58245;BME280;44550;43.864;25.986;2022-11-15T18:42:38;101276.53;;;9.90;76.94
58245;BME280;44550;43.864;25.986;2022-11-15T18:46:38;101280.00;;;9.89;77.21
58245;BME280;44550;43.864;25.986;2022-11-15T18:50:40;101280.53;;;9.71;77.52
58245;BME280;44550;43.864;25.986;2022-11-15T18:54:39;101270.09;;;9.71;77.92
58245;BME280;44550;43.864;25.986;2022-11-15T18:58:39;101268.41;;;9.75;78.13
58245;BME280;44550;43.864;25.986;2022-11-15T19:02:38;101268.66;;;9.88;77.56
58245;BME280;44550;43.864;25.986;2022-11-15T19:06:42;101261.06;;;10.02;76.84
58245;BME280;44550;43.864;25.986;2022-11-15T19:10:42;101255.72;;;9.95;77.06
58245;BME280;44550;43.864;25.986;2022-11-15T19:14:41;101254.59;;;9.80;77.28
58245;BME280;44550;43.864;25.986;2022-11-15T19:18:41;101246.91;;;9.88;77.28
58245;BME280;44550;43.864;25.986;2022-11-15T19:22:43;101246.03;;;9.89;77.54
58245;BME280;44550;43.864;25.986;2022-11-15T19:26:43;101244.22;;;9.83;77.03
58245;BME280;44550;43.864;25.986;2022-11-15T19:30:42;101242.56;;;9.43;78.65
58245;BME280;44550;43.864;25.986;2022-11-15T19:34:42;101237.22;;;9.37;79.78
58245;BME280;44550;43.864;25.986;2022-11-15T19:38:44;101225.97;;;9.39;79.47
58245;BME280;44550;43.864;25.986;2022-11-15T19:42:43;101220.81;;;9.43;79.52
58245;BME280;44550;43.864;25.986;2022-11-15T19:46:43;101212.03;;;9.39;79.65
58245;BME280;44550;43.864;25.986;2022-11-15T19:50:42;101208.31;;;9.26;79.99
58245;BME280;44550;43.864;25.986;2022-11-15T19:54:44;101203.28;;;9.37;79.61
58245;BME280;44550;43.864;25.986;2022-11-15T19:58:44;101207.75;;;9.41;79.47
58245;BME280;44550;43.864;25.986;2022-11-15T20:02:44;101204.41;;;9.50;79.58
58245;BME280;44550;43.864;25.986;2022-11-15T20:06:43;101203.00;;;9.69;78.89
58245;BME280;44550;43.864;25.986;2022-11-15T20:10:45;101203.94;;;9.72;78.05
58245;BME280;44550;43.864;25.986;2022-11-15T20:14:46;101157.94;;;9.30;79.06
58245;BME280;44550;43.864;25.986;2022-11-15T20:18:46;101191.97;;;9.35;79.68
58245;BME280;44550;43.864;25.986;2022-11-15T20:22:46;101191.69;;;9.21;80.35
58245;BME280;44550;43.864;25.986;2022-11-15T20:26:47;101193.19;;;9.08;80.77
58245;BME280;44550;43.864;25.986;2022-11-15T20:30:50;101186.47;;;9.21;81.00
58245;BME280;44550;43.864;25.986;2022-11-15T20:34:50;101184.47;;;9.08;81.06
58245;BME280;44550;43.864;25.986;2022-11-15T20:38:50;101177.59;;;9.11;81.36
58245;BME280;44550;43.864;25.986;2022-11-15T20:42:56;101174.03;;;9.08;81.80
58245;BME280;44550;43.864;25.986;2022-11-15T20:46:55;101161.25;;;9.22;81.37
58245;BME280;44550;43.864;25.986;2022-11-15T20:51:02;101153.97;;;9.51;80.66
58245;BME280;44550;43.864;25.986;2022-11-15T20:55:02;101152.59;;;9.73;79.20
58245;BME280;44550;43.864;25.986;2022-11-15T20:59:04;101142.25;;;9.79;79.21
58245;BME280;44550;43.864;25.986;2022-11-15T21:03:04;101146.88;;;9.94;78.81
58245;BME280;44550;43.864;25.986;2022-11-15T21:07:04;101151.34;;;10.02;78.37
58245;BME280;44550;43.864;25.986;2022-11-15T21:11:04;101147.94;;;10.08;77.92
58245;BME280;44550;43.864;25.986;2022-11-15T21:15:24;101145.38;;;10.11;77.64
58245;BME280;44550;43.864;25.986;2022-11-15T21:19:23;101138.41;;;10.11;77.73
58245;BME280;44550;43.864;25.986;2022-11-15T21:23:31;101141.03;;;10.13;77.58
58245;BME280;44550;43.864;25.986;2022-11-15T21:27:31;101127.16;;;10.14;77.41
58245;BME280;44550;43.864;25.986;2022-11-15T21:31:33;101121.88;;;10.11;77.05
58245;BME280;44550;43.864;25.986;2022-11-15T21:35:33;101119.00;;;9.96;78.11
58245;BME280;44550;43.864;25.986;2022-11-15T21:39:33;101113.22;;;10.14;77.82
58245;BME280;44550;43.864;25.986;2022-11-15T21:43:32;101102.03;;;10.24;77.50
58245;BME280;44550;43.864;25.986;2022-11-15T21:47:34;101099.28;;;10.15;76.79
58245;BME280;44550;43.864;25.986;2022-11-15T21:51:39;101098.81;;;9.84;77.92
58245;BME280;44550;43.864;25.986;2022-11-15T21:55:39;101077.84;;;9.78;78.06
58245;BME280;44550;43.864;25.986;2022-11-15T21:59:39;101088.34;;;9.82;78.04
58245;BME280;44550;43.864;25.986;2022-11-15T22:04:13;101084.59;;;9.65;78.87
58245;BME280;44550;43.864;25.986;2022-11-15T22:08:12;101044.19;;;9.43;79.21
58245;BME280;44550;43.864;25.986;2022-11-15T22:12:12;101066.09;;;9.53;79.56
58245;BME280;44550;43.864;25.986;2022-11-15T22:16:12;101066.16;;;9.54;79.77
58245;BME280;44550;43.864;25.986;2022-11-15T22:20:14;101061.59;;;9.41;79.95
58245;BME280;44550;43.864;25.986;2022-11-15T22:24:34;101058.28;;;9.53;80.13
58245;BME280;44550;43.864;25.986;2022-11-15T22:28:34;101058.22;;;9.50;80.04
58245;BME280;44550;43.864;25.986;2022-11-15T22:32:34;101038.84;;;9.35;80.48
58245;BME280;44550;43.864;25.986;2022-11-15T22:36:36;101007.53;;;9.34;80.77
58245;BME280;44550;43.864;25.986;2022-11-15T22:41:01;101040.56;;;9.33;80.77
58245;BME280;44550;43.864;25.986;2022-11-15T22:45:01;101026.22;;;9.08;81.53
58245;BME280;44550;43.864;25.986;2022-11-15T22:49:01;101027.75;;;8.96;82.41
58245;BME280;44550;43.864;25.986;2022-11-15T22:53:03;101018.94;;;8.90;83.13
58245;BME280;44550;43.864;25.986;2022-11-15T22:57:03;101015.63;;;8.99;83.07
58245;BME280;44550;43.864;25.986;2022-11-15T23:01:04;101004.44;;;9.06;82.89
58245;BME280;44550;43.864;25.986;2022-11-15T23:05:05;100980.66;;;8.88;83.17
58245;BME280;44550;43.864;25.986;2022-11-15T23:09:08;100988.25;;;8.74;83.45
58245;BME280;44550;43.864;25.986;2022-11-15T23:13:11;100984.16;;;8.90;83.50
58245;BME280;44550;43.864;25.986;2022-11-15T23:17:15;100978.19;;;8.94;83.21
58245;BME280;44550;43.864;25.986;2022-11-15T23:21:17;100970.63;;;9.12;82.86
58245;BME280;44550;43.864;25.986;2022-11-15T23:25:41;100962.91;;;9.18;82.40
58245;BME280;44550;43.864;25.986;2022-11-15T23:29:40;100967.09;;;9.07;82.19
58245;BME280;44550;43.864;25.986;2022-11-15T23:33:57;100959.06;;;8.97;82.82
58245;BME280;44550;43.864;25.986;2022-11-15T23:37:56;100955.41;;;8.85;83.69
58245;BME280;44550;43.864;25.986;2022-11-15T23:41:58;100952.69;;;8.78;84.18
58245;BME280;44550;43.864;25.986;2022-11-15T23:46:05;100950.22;;;8.87;83.93
58245;BME280;44550;43.864;25.986;2022-11-15T23:50:06;100931.88;;;8.81;84.12
58245;BME280;44550;43.864;25.986;2022-11-15T23:54:06;100946.81;;;8.91;83.76
58245;BME280;44550;43.864;25.986;2022-11-15T23:58:09;100925.88;;;8.86;83.43
